Main page
METAR-TAF:

METAR-TAF

Airports :

Rarotonga International Airport

Rarotonga, Cook Islands

latitude: 21-12S, longitude: 159-49W, elevation: 7 m

Current weather observation

The report was made 30 minutes ago, at 06:00 UTC
Wind 9 kt from the East
Temperature 22°C
Humidity 73%
Pressure 1017 hPa
Visibility 10 km or more
Broken clouds at a height of 2200 ft

METAR: NCRG 170600Z 09009KT 9999 BKN022 22/17 Q1017

Time: 20:30 (06:30 UTC)

Forecast

The report was made 1 hour and 11 minutes ago, at 05:19 UTC
Forecast valid from 17 at 06 UTC to 18 at 06 UTC
Wind 10 kt from the East
Visibility 10 km or more
Scattered clouds at a height of 2200 ft
Broken clouds at a height of 4500 ft

TAF: NCRG 170519Z 1706/1806 10010KT 9999 SCT022 BKN045

Weather observations and forecasts of more than 4000 airports (METAR and TAF reports).

The available stations are represented by yellow and red dots on the map.

Hover mouse over dot to see the name of the station.

Then click to see weather observations and forecasts.

To change the map : click on the green buttons with a black cross to zoom in, on the green button with a dash to zoom out, or on the green arrows for adjacent maps.


METAR-TAF: